Time;durP1;ratioP1;P1;durP2;ratioP2;P2;SDS_P1;SDS_P2;PMS_P1;PMS_P2;Temp;Humidity;BMP_temperature;BMP_pressure;BME280_temperature;BME280_humidity;BME280_pressure;Samples;Min_cycle;Max_cycle;Signal;HPM_P1;HPM_P2
2022/01/26 01:53:15;;;;;;;62.45;21.90;;;;;;;-1.70;100.00;95418.56;5243706;23;20238;-92
2022/01/26 01:55:46;;;;;;;55.95;22.65;;;;;;;-1.55;100.00;95418.69;4998762;28;20439;-94
2022/01/26 01:58:12;;;;;;;56.60;22.70;;;;;;;-1.71;100.00;95416.97;4983288;28;20505;-93
2022/01/26 02:00:38;;;;;;;59.08;22.90;;;;;;;-1.79;100.00;95417.78;4982774;28;20030;-94
2022/01/26 02:03:04;;;;;;;59.75;23.35;;;;;;;-1.87;100.00;95412.66;4999228;28;20034;-93
2022/01/26 02:05:30;;;;;;;64.80;24.40;;;;;;;-1.76;100.00;95414.06;4982174;28;20030;-94
2022/01/26 02:07:56;;;;;;;61.00;24.55;;;;;;;-1.67;100.00;95412.28;4981950;28;20033;-94
2022/01/26 02:10:23;;;;;;;62.92;24.70;;;;;;;-1.62;100.00;95408.25;4982751;28;20030;-94
2022/01/26 02:12:54;;;;;;;59.58;23.65;;;;;;;-1.55;100.00;95405.03;4982702;28;20034;-94
2022/01/26 02:15:31;;;;;;;66.95;24.02;;;;;;;-1.65;100.00;95413.72;4982258;28;20109;-94
2022/01/26 02:18:28;;;;;;;64.15;25.05;;;;;;;-1.76;100.00;95404.59;4983937;28;20065;-93
2022/01/26 02:49:46;;;;;;;66.53;22.80;;;;;;;-1.92;100.00;95387.44;4998817;28;20033;-93
2022/01/26 02:52:26;;;;;;;60.40;23.40;;;;;;;-1.99;100.00;95389.09;4984157;28;20041;-94
2022/01/26 02:55:12;;;;;;;69.28;26.55;;;;;;;-1.97;100.00;95391.47;4997888;28;20347;-94
2022/01/26 02:57:50;;;;;;;65.70;24.60;;;;;;;-1.89;100.00;95389.69;5011365;28;20034;-92
2022/01/26 03:02:58;;;;;;;56.47;23.05;;;;;;;-1.96;100.00;95387.94;4997959;28;20037;-93
2022/01/26 03:05:30;;;;;;;62.72;24.25;;;;;;;-1.92;100.00;95384.88;4998017;28;20030;-93
2022/01/26 03:08:04;;;;;;;70.07;25.48;;;;;;;-1.74;100.00;95394.97;4997774;28;20030;-95
2022/01/26 03:13:11;;;;;;;67.47;24.77;;;;;;;-1.54;100.00;95383.50;5013429;28;20026;-93
2022/01/26 03:15:45;;;;;;;68.63;24.60;;;;;;;-1.64;100.00;95387.06;4997418;28;20037;-94
2022/01/26 03:21:06;;;;;;;63.80;26.10;;;;;;;-1.51;100.00;95380.59;4962526;28;20042;-94
2022/01/26 03:29:38;;;;;;;58.58;23.73;;;;;;;-1.63;100.00;95375.81;4997246;28;20041;-93
2022/01/26 03:34:52;;;;;;;73.22;24.73;;;;;;;-1.54;100.00;95384.28;4997184;28;20355;-92
2022/01/26 03:37:21;;;;;;;64.18;25.20;;;;;;;-1.50;100.00;95370.16;4982317;28;20053;-93
2022/01/26 03:39:46;;;;;;;68.30;25.17;;;;;;;-1.58;100.00;95375.31;4981384;28;20053;-93
2022/01/26 03:42:15;;;;;;;64.75;24.48;;;;;;;-1.61;100.00;95363.59;4981154;28;20033;-94
2022/01/26 03:44:42;;;;;;;60.38;23.60;;;;;;;-1.57;100.00;95370.03;4997912;28;20034;-93
2022/01/26 03:47:08;;;;;;;66.65;26.30;;;;;;;-1.60;100.00;95365.19;4981037;28;20026;-92
2022/01/26 03:49:34;;;;;;;57.08;23.10;;;;;;;-1.61;100.00;95349.97;4980835;28;20493;-93
2022/01/26 03:52:01;;;;;;;55.88;22.70;;;;;;;-1.67;100.00;95358.31;4980968;28;20046;-95
2022/01/26 03:54:27;;;;;;;70.90;27.63;;;;;;;-1.49;100.00;95358.91;4981100;28;20026;-94
2022/01/26 03:56:53;;;;;;;67.07;26.60;;;;;;;-1.45;100.00;95361.94;4980663;28;20037;-93
2022/01/26 03:59:19;;;;;;;67.60;25.77;;;;;;;-1.48;100.00;95365.66;4964383;28;20038;-90
2022/01/26 04:01:44;;;;;;;64.75;25.08;;;;;;;-1.59;100.00;95353.16;4980591;28;20093;-91
2022/01/26 04:04:10;;;;;;;77.30;26.98;;;;;;;-1.71;100.00;95360.44;4980528;28;20072;-94
2022/01/26 04:06:36;;;;;;;70.15;27.05;;;;;;;-1.89;100.00;95358.84;4996795;28;20053;-92
2022/01/26 04:12:23;;;;;;;71.43;26.40;;;;;;;-2.18;100.00;95351.72;4997649;28;20104;-93
2022/01/26 04:14:56;;;;;;;80.72;29.92;;;;;;;-2.13;100.00;95355.41;4996464;28;20042;-93
2022/01/26 04:17:21;;;;;;;82.67;29.43;;;;;;;-2.03;100.00;95354.41;4996560;28;20068;-92
2022/01/26 04:19:54;;;;;;;92.22;30.90;;;;;;;-2.08;100.00;95348.97;4980717;28;20415;-92
2022/01/26 04:22:25;;;;;;;86.63;31.15;;;;;;;-2.11;100.00;95357.78;4996621;28;20030;-93
2022/01/26 04:24:53;;;;;;;88.78;30.92;;;;;;;-2.18;100.00;95359.41;4996745;28;20022;-93
2022/01/26 04:27:32;;;;;;;97.82;32.85;;;;;;;-2.12;100.00;95358.75;4996987;28;20022;-93
2022/01/26 04:29:57;;;;;;;93.97;31.58;;;;;;;-2.04;100.00;95356.19;5011508;28;20034;-92
2022/01/26 04:32:24;;;;;;;77.25;28.67;;;;;;;-2.19;100.00;95345.75;4996614;28;20037;-93
2022/01/26 04:34:49;;;;;;;87.00;30.67;;;;;;;-2.20;100.00;95346.72;4996353;28;20034;-93
2022/01/26 04:39:56;;;;;;;95.47;32.70;;;;;;;-2.22;100.00;95340.94;4996784;28;20538;-93
2022/01/26 04:42:36;;;;;;;91.68;32.50;;;;;;;-2.18;100.00;95347.34;4981123;28;20035;-93
2022/01/26 04:45:03;;;;;;;98.35;32.83;;;;;;;-2.06;100.00;95340.13;4982075;28;20057;-92
2022/01/26 04:47:29;;;;;;;84.53;31.17;;;;;;;-2.15;100.00;95343.66;4980494;28;20420;-92
2022/01/26 04:49:54;;;;;;;77.82;29.90;;;;;;;-2.15;100.00;95341.09;4996528;28;20026;-92
2022/01/26 04:52:20;;;;;;;93.65;31.58;;;;;;;-2.21;100.00;95345.13;4963972;28;20133;-93
2022/01/26 04:54:46;;;;;;;86.90;31.80;;;;;;;-2.05;100.00;95349.44;4996089;28;20066;-92
2022/01/26 04:57:11;;;;;;;86.95;31.30;;;;;;;-2.07;100.00;95345.44;4996297;28;20439;-92
2022/01/26 05:00:31;;;;;;;79.90;30.10;;;;;;;-2.13;100.00;95342.56;4983293;28;20124;-93
2022/01/26 05:02:56;;;;;;;88.28;29.98;;;;;;;-2.13;100.00;95342.56;5000651;28;20113;-91
2022/01/26 05:05:23;;;;;;;93.05;31.88;;;;;;;-2.11;100.00;95342.38;4999530;28;20474;-91
2022/01/26 05:07:49;;;;;;;98.13;33.50;;;;;;;-1.92;100.00;95346.34;4999739;28;20037;-93
2022/01/26 05:10:14;;;;;;;84.35;30.95;;;;;;;-2.00;100.00;95343.81;4999379;28;20034;-93
2022/01/26 05:12:41;;;;;;;94.43;32.53;;;;;;;-2.14;100.00;95342.72;4999325;28;20034;-90
2022/01/26 05:15:07;;;;;;;89.85;33.25;;;;;;;-2.20;100.00;95344.16;4999568;28;20180;-93
2022/01/26 05:17:35;;;;;;;96.47;35.80;;;;;;;-2.17;100.00;95350.75;4983116;28;20045;-92
2022/01/26 05:20:01;;;;;;;93.50;33.60;;;;;;;-2.03;100.00;95350.06;5016050;28;20035;-93
2022/01/26 05:22:27;;;;;;;85.97;32.15;;;;;;;-2.17;100.00;95343.03;4983496;28;20041;-92
2022/01/26 05:24:53;;;;;;;99.80;33.15;;;;;;;-2.05;100.00;95339.16;4983469;28;20344;-92
2022/01/26 05:27:19;;;;;;;92.93;32.05;;;;;;;-2.11;100.00;95339.03;4983078;28;20034;-92
2022/01/26 05:29:45;;;;;;;86.60;31.20;;;;;;;-2.22;100.00;95343.53;4982693;28;20062;-93
2022/01/26 05:32:10;;;;;;;90.30;33.17;;;;;;;-2.15;100.00;95348.81;4999324;28;20089;-93
2022/01/26 05:34:37;;;;;;;89.78;33.40;;;;;;;-2.13;100.00;95346.88;4983178;28;20038;-93
2022/01/26 05:37:03;;;;;;;93.35;34.45;;;;;;;-2.13;100.00;95345.13;4999292;28;20121;-94
2022/01/26 05:39:31;;;;;;;93.43;32.58;;;;;;;-2.16;100.00;95337.72;4999077;28;20035;-93
2022/01/26 05:41:57;;;;;;;94.47;33.15;;;;;;;-2.14;100.00;95340.94;4998977;28;20431;-92
2022/01/26 05:44:22;;;;;;;89.35;32.30;;;;;;;-2.13;100.00;95329.72;4999307;28;20037;-93
2022/01/26 05:46:49;;;;;;;91.63;32.05;;;;;;;-2.27;100.00;95322.69;4982733;28;20048;-92
2022/01/26 05:52:37;;;;;;;90.85;32.38;;;;;;;-2.14;100.00;95328.13;5000362;28;20084;-90
2022/01/26 05:55:03;;;;;;;90.53;33.22;;;;;;;-2.17;100.00;95335.34;4998821;28;20069;-91
2022/01/26 05:57:28;;;;;;;98.93;31.67;;;;;;;-2.29;100.00;95322.03;4998556;28;20045;-91
2022/01/26 05:59:55;;;;;;;86.97;30.70;;;;;;;-2.33;100.00;95331.00;4998196;28;20041;-93
2022/01/26 06:02:20;;;;;;;85.40;29.88;;;;;;;-2.46;100.00;95341.78;4982545;28;20450;-92
2022/01/26 06:04:46;;;;;;;85.78;31.95;;;;;;;-2.56;100.00;95334.25;4998455;28;20034;-93
2022/01/26 06:07:12;;;;;;;93.20;32.97;;;;;;;-2.61;100.00;95337.31;4982660;28;20037;-92
2022/01/26 06:09:38;;;;;;;95.30;32.75;;;;;;;-2.64;100.00;95337.63;4997371;28;20038;-91
2022/01/26 06:12:03;;;;;;;80.88;31.67;;;;;;;-2.54;100.00;95342.59;4983015;28;20026;-92
2022/01/26 06:14:30;;;;;;;104.45;31.77;;;;;;;-2.44;100.00;95335.53;4998195;28;20054;-91
2022/01/26 06:16:56;;;;;;;96.82;34.30;;;;;;;-2.36;100.00;95341.63;4998175;28;20325;-92
2022/01/26 06:19:21;;;;;;;88.63;30.77;;;;;;;-2.43;100.00;95344.03;4982168;28;20034;-92
2022/01/26 06:21:47;;;;;;;86.40;29.38;;;;;;;-2.30;100.00;95349.47;4998205;28;20056;-93
2022/01/26 06:24:12;;;;;;;85.43;29.27;;;;;;;-2.29;100.00;95337.44;4982035;28;20073;-91
2022/01/26 06:26:40;;;;;;;82.05;31.13;;;;;;;-2.27;100.00;95348.34;4981903;28;20061;-91
2022/01/26 06:29:06;;;;;;;85.10;29.13;;;;;;;-2.31;100.00;95339.34;4982220;28;20038;-92
2022/01/26 06:31:33;;;;;;;86.63;31.05;;;;;;;-2.15;100.00;95349.63;4981832;28;20092;-91
2022/01/26 06:34:02;;;;;;;80.50;30.88;;;;;;;-2.00;100.00;95348.97;4997762;28;20034;-92
2022/01/26 06:36:28;;;;;;;81.55;29.85;;;;;;;-1.89;100.00;95347.78;4997872;28;20030;-93
2022/01/26 06:38:54;;;;;;;79.63;28.92;;;;;;;-2.06;100.00;95349.59;4981383;28;20037;-92
2022/01/26 06:41:24;;;;;;;89.85;32.72;;;;;;;-1.75;100.00;95348.88;4981932;28;20022;-90
2022/01/26 06:43:55;;;;;;;84.05;30.63;;;;;;;-2.02;100.00;95345.72;4982569;28;20157;-91
2022/01/26 06:46:28;;;;;;;91.95;32.17;;;;;;;-1.95;100.00;95356.16;4982221;28;20018;-91
2022/01/26 06:49:28;;;;;;;87.88;30.02;;;;;;;-1.97;100.00;95348.63;4997769;28;20061;-90
2022/01/26 06:51:45;;;;;;;74.60;27.77;;;;;;;-2.02;100.00;95356.00;4997557;28;20033;-91
2022/01/26 06:54:11;;;;;;;96.38;34.00;;;;;;;-2.01;100.00;95357.59;4997310;28;20034;-92
2022/01/26 06:56:36;;;;;;;93.32;31.83;;;;;;;-1.94;100.00;95358.56;4997678;28;20022;-91
2022/01/26 06:59:02;;;;;;;77.10;30.98;;;;;;;-1.95;100.00;95349.25;4981349;28;20048;-91
2022/01/26 07:01:27;;;;;;;83.28;31.60;;;;;;;-1.92;100.00;95350.69;4981535;28;20035;-90
2022/01/26 07:03:53;;;;;;;101.70;32.53;;;;;;;-1.88;100.00;95350.19;4997202;28;20030;-91
2022/01/26 07:06:18;;;;;;;84.72;30.60;;;;;;;-1.85;100.00;95361.91;4981143;28;20022;-91
2022/01/26 07:08:45;;;;;;;81.28;29.83;;;;;;;-1.87;100.00;95364.63;4997162;28;20022;-91
2022/01/26 07:11:11;;;;;;;84.50;31.23;;;;;;;-1.79;100.00;95363.03;4997139;28;20365;-90
2022/01/26 07:13:39;;;;;;;86.18;33.00;;;;;;;-1.54;100.00;95363.72;4981298;28;20041;-91
2022/01/26 07:21:32;;;;;;;73.50;29.10;;;;;;;-1.55;100.00;95371.63;4996888;28;20085;-90
2022/01/26 07:23:59;;;;;;;78.22;29.88;;;;;;;-1.50;100.00;95377.06;4981021;28;20034;-91
2022/01/26 07:26:28;;;;;;;79.10;29.88;;;;;;;-1.42;100.00;95375.25;4980834;28;20049;-91
2022/01/26 07:28:54;;;;;;;72.05;27.85;;;;;;;-1.58;100.00;95378.72;4981501;28;20038;-92
2022/01/26 07:31:21;;;;;;;69.57;26.55;;;;;;;-1.38;100.00;95375.72;4996811;28;20034;-91
2022/01/26 07:33:53;;;;;;;62.75;24.35;;;;;;;-1.36;100.00;95376.38;4996795;28;20099;-91
2022/01/26 07:36:18;;;;;;;59.08;23.55;;;;;;;-1.29;100.00;95379.88;4981448;28;20037;-91
2022/01/26 07:38:43;;;;;;;63.33;25.63;;;;;;;-1.37;100.00;95381.66;4980746;28;20424;-91
2022/01/26 07:41:09;;;;;;;58.38;23.95;;;;;;;-1.45;100.00;95378.16;4980737;28;20502;-92
2022/01/26 07:43:34;;;;;;;69.10;25.45;;;;;;;-1.38;100.00;95380.06;4964866;28;20030;-90
2022/01/26 07:46:00;;;;;;;66.20;26.23;;;;;;;-1.39;100.00;95379.28;4996366;28;20419;-91
2022/01/26 07:48:26;;;;;;;55.10;22.80;;;;;;;-1.32;100.00;95381.97;4980950;28;20033;-92
2022/01/26 07:50:54;;;;;;;57.47;24.50;;;;;;;-1.33;100.00;95381.16;4996531;28;20343;-91
2022/01/26 07:53:20;;;;;;;66.55;26.77;;;;;;;-1.20;100.00;95382.41;4980789;28;20034;-91
2022/01/26 07:55:48;;;;;;;61.47;26.05;;;;;;;-1.03;100.00;95380.56;4980540;28;20037;-91
2022/01/26 07:58:14;;;;;;;58.10;24.95;;;;;;;-1.10;100.00;95384.75;4997007;28;20104;-90
2022/01/26 08:00:39;;;;;;;70.63;26.05;;;;;;;-1.12;100.00;95381.56;4996387;28;20038;-91
2022/01/26 08:03:05;;;;;;;55.63;24.50;;;;;;;-1.04;100.00;95384.09;4980685;28;20027;-90
2022/01/26 08:05:30;;;;;;;64.22;24.30;;;;;;;-1.01;100.00;95373.47;4980137;28;20057;-90
2022/01/26 08:07:56;;;;;;;55.85;23.65;;;;;;;-0.97;100.00;95374.72;4980999;28;20085;-91
2022/01/26 08:10:21;;;;;;;56.90;22.20;;;;;;;-0.92;100.00;95385.31;4980261;28;20037;-90
2022/01/26 08:12:49;;;;;;;54.47;21.92;;;;;;;-0.86;100.00;95383.84;4980111;28;20030;-90
2022/01/26 08:15:14;;;;;;;55.00;21.35;;;;;;;-0.83;100.00;95388.66;4980713;28;20032;-90
2022/01/26 08:17:40;;;;;;;57.17;22.23;;;;;;;-0.90;100.00;95398.00;4996182;28;20034;-90
2022/01/26 08:20:07;;;;;;;56.83;22.15;;;;;;;-0.90;100.00;95383.38;4996254;28;20034;-90
2022/01/26 08:22:34;;;;;;;51.88;22.75;;;;;;;-1.02;100.00;95384.72;4980375;28;20026;-91
2022/01/26 08:24:59;;;;;;;46.33;19.55;;;;;;;-0.98;100.00;95383.41;4980365;28;20030;-91
2022/01/26 08:27:28;;;;;;;51.10;20.95;;;;;;;-0.95;100.00;95369.41;4996313;28;20451;-91
2022/01/26 08:30:00;;;;;;;53.58;21.75;;;;;;;-0.76;100.00;95383.63;4996862;28;20062;-91
2022/01/26 08:32:26;;;;;;;61.08;21.95;;;;;;;-0.61;100.00;95383.66;5011807;28;20113;-91
2022/01/26 08:34:52;;;;;;;53.97;20.92;;;;;;;-0.48;100.00;95378.75;4983793;28;20439;-92
2022/01/26 08:37:17;;;;;;;48.00;20.80;;;;;;;-0.36;100.00;95378.34;4999803;28;20076;-91
2022/01/26 08:39:43;;;;;;;50.45;21.50;;;;;;;-0.37;100.00;95387.84;4983884;28;20037;-91
2022/01/26 08:42:08;;;;;;;53.83;22.90;;;;;;;-0.28;100.00;95383.44;4983788;28;20030;-91
2022/01/26 08:44:35;;;;;;;52.45;21.92;;;;;;;-0.14;100.00;95392.16;4999516;28;20436;-92
2022/01/26 08:47:01;;;;;;;53.13;21.92;;;;;;;-0.02;100.00;95389.97;4984037;28;20038;-91
2022/01/26 08:52:49;;;;;;;52.85;22.38;;;;;;;0.08;100.00;95389.72;5000656;28;20076;-91
2022/01/26 08:55:14;;;;;;;49.92;20.67;;;;;;;0.12;100.00;95386.59;4983560;28;20034;-91
2022/01/26 08:57:40;;;;;;;52.25;20.60;;;;;;;0.30;100.00;95387.25;4999399;28;20070;-92
2022/01/26 09:00:08;;;;;;;47.75;21.08;;;;;;;0.26;100.00;95385.03;4999437;28;20070;-92
2022/01/26 09:02:34;;;;;;;44.65;20.08;;;;;;;0.29;100.00;95373.56;4983149;28;20092;-91
2022/01/26 09:05:00;;;;;;;42.65;19.92;;;;;;;0.32;100.00;95378.38;4999790;28;20030;-91
2022/01/26 09:07:26;;;;;;;44.88;20.55;;;;;;;0.26;100.00;95377.28;4983723;28;20034;-92
2022/01/26 09:09:51;;;;;;;46.95;21.00;;;;;;;0.32;100.00;95370.63;5015775;28;20037;-92
2022/01/26 09:31:38;;;;;;;40.80;19.33;;;;;;;0.76;100.00;95375.94;5114392;27;20383;-87
2022/01/26 09:34:03;;;;;;;40.40;18.98;;;;;;;0.78;100.00;95369.59;5096973;28;20028;-87
2022/01/26 09:36:30;;;;;;;42.47;19.00;;;;;;;0.95;100.00;95380.53;5113505;28;20028;-87
2022/01/26 09:38:56;;;;;;;38.13;17.30;;;;;;;1.10;100.00;95382.25;5097094;28;20053;-87
2022/01/26 09:41:22;;;;;;;38.33;17.63;;;;;;;1.18;100.00;95389.91;5112735;28;20496;-86
2022/01/26 09:43:48;;;;;;;38.25;16.52;;;;;;;1.31;100.00;95389.25;5096235;28;20424;-87
2022/01/26 09:46:14;;;;;;;38.80;18.27;;;;;;;1.26;100.00;95389.78;5096536;28;20063;-87
2022/01/26 09:48:42;;;;;;;39.55;17.27;;;;;;;1.35;100.00;95389.69;5113248;28;20069;-86
2022/01/26 09:51:10;;;;;;;37.35;15.80;;;;;;;1.44;100.00;95388.59;5112556;28;20046;-87
2022/01/26 09:53:36;;;;;;;39.33;16.83;;;;;;;1.31;100.00;95378.13;5096457;28;20020;-86
2022/01/26 09:56:01;;;;;;;34.20;15.13;;;;;;;1.34;100.00;95375.16;5095806;28;20034;-86
2022/01/26 09:58:27;;;;;;;33.75;14.50;;;;;;;1.41;100.00;95379.41;5096029;28;20023;-87
2022/01/26 10:01:01;;;;;;;32.72;13.60;;;;;;;1.55;100.00;95376.97;5112554;28;20019;-87
2022/01/26 10:03:30;;;;;;;27.45;13.70;;;;;;;1.78;100.00;95369.00;5096234;28;20089;-86
2022/01/26 10:05:56;;;;;;;35.00;13.98;;;;;;;1.98;100.00;95368.34;5096259;28;20028;-87
2022/01/26 10:08:52;;;;;;;32.05;13.93;;;;;;;2.02;100.00;95374.75;5112882;28;20114;-87
2022/01/26 10:19:01;;;;;;;30.08;13.80;;;;;;;2.58;100.00;95356.75;5112555;28;20073;-86
2022/01/26 10:21:27;;;;;;;26.92;13.30;;;;;;;2.80;100.00;95345.31;5111901;28;20321;-86
2022/01/26 10:23:54;;;;;;;25.80;12.85;;;;;;;2.91;100.00;95356.09;5095292;28;20073;-87
2022/01/26 10:26:20;;;;;;;33.55;13.45;;;;;;;3.06;100.00;95348.97;5095892;28;20024;-87
2022/01/26 10:28:59;;;;;;;27.70;12.52;;;;;;;3.21;100.00;95345.41;5095743;28;20084;-87
2022/01/26 10:31:28;;;;;;;28.77;11.88;;;;;;;3.41;100.00;95349.84;5105194;28;20028;-87
2022/01/26 10:34:02;;;;;;;24.00;11.35;;;;;;;3.41;100.00;95342.06;5098557;28;20024;-87
2022/01/26 10:36:45;;;;;;;21.42;9.95;;;;;;;3.49;100.00;95342.69;5098469;28;20028;-87
2022/01/26 10:39:34;;;;;;;26.87;10.80;;;;;;;3.62;100.00;95335.91;5081731;28;20039;-87
2022/01/26 10:42:05;;;;;;;18.45;9.63;;;;;;;3.65;100.00;95338.09;5082117;28;20127;-87
2022/01/26 10:44:37;;;;;;;21.35;10.20;;;;;;;3.77;100.00;95343.47;5098616;28;20024;-86
2022/01/26 10:47:05;;;;;;;27.05;12.45;;;;;;;3.86;100.00;95338.88;5098533;28;20028;-86
2022/01/26 10:50:07;;;;;;;25.38;11.20;;;;;;;3.82;100.00;95334.09;5098538;28;20336;-87
2022/01/26 10:52:35;;;;;;;26.27;12.05;;;;;;;3.90;100.00;95330.50;5098561;28;20034;-87
2022/01/26 10:55:01;;;;;;;25.83;12.20;;;;;;;4.05;100.00;95330.31;5098512;28;20433;-87
2022/01/26 10:57:28;;;;;;;22.58;10.73;;;;;;;3.98;100.00;95332.09;5098290;28;20062;-87
2022/01/26 10:59:54;;;;;;;29.05;11.25;;;;;;;3.92;100.00;95328.50;5097546;28;20023;-87
2022/01/26 11:02:27;;;;;;;22.63;11.27;;;;;;;4.03;100.00;95331.50;5099436;28;20032;-86
2022/01/26 11:04:52;;;;;;;32.60;11.85;;;;;;;4.05;100.00;95322.53;5099138;28;20322;-87
2022/01/26 11:07:18;;;;;;;31.77;13.05;;;;;;;4.13;100.00;95328.47;5098205;28;20031;-86
2022/01/26 11:09:46;;;;;;;26.67;12.68;;;;;;;4.33;100.00;95326.66;5097107;28;20073;-86
2022/01/26 11:12:14;;;;;;;26.83;12.80;;;;;;;4.27;100.00;95317.06;5097812;28;20027;-86
2022/01/26 11:14:39;;;;;;;25.75;12.57;;;;;;;4.32;100.00;95325.06;5099261;28;20436;-86
2022/01/26 11:17:05;;;;;;;25.85;12.02;;;;;;;4.71;100.00;95325.13;5097983;28;20118;-86
2022/01/26 11:19:44;;;;;;;26.23;12.55;;;;;;;4.59;100.00;95318.97;5097614;28;20047;-87
2022/01/26 11:22:11;;;;;;;27.08;12.77;;;;;;;4.62;100.00;95319.38;5097536;28;20028;-86
2022/01/26 11:24:45;;;;;;;27.70;12.63;;;;;;;4.57;100.00;95314.00;5080866;28;20059;-87
2022/01/26 11:27:11;;;;;;;25.77;11.85;;;;;;;4.77;100.00;95313.13;5098953;28;20082;-87
2022/01/26 11:29:42;;;;;;;27.92;12.40;;;;;;;4.70;100.00;95314.94;5097483;28;20051;-88
2022/01/26 11:32:13;;;;;;;25.75;13.48;;;;;;;4.93;100.00;95307.44;5094342;28;20032;-87
2022/01/26 11:34:40;;;;;;;29.55;12.75;;;;;;;4.86;100.00;95303.28;5068302;28;20027;-86
2022/01/26 11:37:12;;;;;;;25.02;12.18;;;;;;;4.81;100.00;95306.50;5097225;28;20436;-87
2022/01/26 11:45:40;;;;;;;29.67;13.93;;;;;;;5.14;100.00;95302.94;5097643;28;20028;-87
2022/01/26 11:48:21;;;;;;;30.75;13.27;;;;;;;5.12;100.00;95291.94;5084297;28;20036;-87
2022/01/26 11:50:57;;;;;;;29.55;14.00;;;;;;;5.17;100.00;95289.53;5096703;28;20046;-87
2022/01/26 11:53:24;;;;;;;33.08;13.88;;;;;;;5.19;100.00;95287.53;5097423;28;20430;-88
2022/01/26 11:55:56;;;;;;;27.75;12.95;;;;;;;5.17;100.00;95283.53;5097191;28;20429;-87
2022/01/26 11:58:29;;;;;;;27.13;12.98;;;;;;;5.26;100.00;95281.47;5081425;28;20058;-87
2022/01/26 12:01:16;;;;;;;30.05;14.48;;;;;;;5.35;100.00;95281.00;5077349;28;20118;-87
2022/01/26 12:03:58;;;;;;;26.38;13.02;;;;;;;5.41;100.00;95279.38;5077695;28;20433;-87
2022/01/26 12:06:49;;;;;;;24.83;13.02;;;;;;;5.50;100.00;95285.09;5077921;28;20025;-87
2022/01/26 12:09:14;;;;;;;26.27;12.82;;;;;;;5.76;100.00;95270.28;5076767;28;20023;-87
2022/01/26 12:11:40;;;;;;;34.03;14.50;;;;;;;5.85;100.00;95269.00;5059768;28;20020;-87
2022/01/26 12:14:10;;;;;;;29.38;13.55;;;;;;;5.94;100.00;95269.53;5076626;28;20021;-87
2022/01/26 12:16:43;;;;;;;28.10;13.35;;;;;;;5.95;100.00;95271.13;5093157;28;20393;-87
2022/01/26 12:33:21;;;;;;;35.45;16.77;;;;;;;6.05;100.00;95255.03;5076499;28;20078;-87
2022/01/26 12:38:31;;;;;;;38.55;18.67;;;;;;;6.17;100.00;95244.69;5076325;28;20024;-87
2022/01/26 12:44:10;;;;;;;51.28;19.92;;;;;;;6.29;100.00;95244.78;5032590;28;20463;-87
2022/01/26 12:46:36;;;;;;;37.97;18.40;;;;;;;6.41;100.00;95240.44;5092958;28;20050;-87
2022/01/26 12:49:14;;;;;;;36.67;19.00;;;;;;;6.22;100.00;95235.22;5075904;28;20035;-87
2022/01/26 12:51:42;;;;;;;39.30;19.08;;;;;;;6.32;100.00;95226.91;5075554;28;20034;-87
2022/01/26 12:54:07;;;;;;;39.17;19.30;;;;;;;6.56;100.00;95228.84;5059330;28;20082;-88
2022/01/26 12:56:33;;;;;;;38.33;18.42;;;;;;;6.75;100.00;95230.38;5077414;28;20028;-87
2022/01/26 12:59:04;;;;;;;45.42;19.35;;;;;;;6.56;100.00;95224.41;5059366;28;20036;-87
2022/01/26 13:01:30;;;;;;;37.47;18.85;;;;;;;6.60;100.00;95222.97;5075935;28;20032;-87
2022/01/26 13:03:59;;;;;;;40.20;19.67;;;;;;;6.67;100.00;95222.06;5076040;28;20030;-87
2022/01/26 13:06:31;;;;;;;48.97;19.55;;;;;;;6.57;100.00;95217.41;5075815;28;20036;-87
2022/01/26 13:08:59;;;;;;;42.65;18.70;;;;;;;6.61;100.00;95214.16;5092499;28;20031;-87
2022/01/26 13:11:36;;;;;;;40.22;19.77;;;;;;;6.67;100.00;95219.47;5075381;28;20021;-88
2022/01/26 13:14:42;;;;;;;40.38;18.95;;;;;;;6.86;100.00;95215.78;5059342;28;20503;-87
2022/01/26 13:30:09;;;;;;;43.97;18.52;;;;;;;7.10;100.00;95197.63;5076731;28;20040;-87
2022/01/26 13:35:50;;;;;;;39.92;18.65;;;;;;;7.26;100.00;95196.19;5059997;28;20052;-88
2022/01/26 14:01:42;;;;;;;52.92;27.95;;;;;;;7.71;100.00;95207.06;5075105;28;20033;-87
2022/01/26 14:04:08;;;;;;;40.03;20.65;;;;;;;7.62;100.00;95207.41;5059395;28;20028;-88
2022/01/26 14:06:33;;;;;;;41.30;19.98;;;;;;;7.57;100.00;95203.88;5076264;28;20029;-88
2022/01/26 14:08:58;;;;;;;38.13;19.13;;;;;;;7.47;100.00;95199.22;5062403;28;20530;-88
2022/01/26 14:11:24;;;;;;;39.85;20.50;;;;;;;7.57;100.00;95198.66;5062012;28;20418;-88
2022/01/26 14:13:52;;;;;;;48.70;24.55;;;;;;;7.48;100.00;95206.84;5079991;28;20429;-88
2022/01/26 14:16:19;;;;;;;42.60;19.02;;;;;;;7.52;100.00;95209.00;5062588;28;20338;-88
2022/01/26 14:19:02;;;;;;;38.35;19.48;;;;;;;7.41;100.00;95219.19;5079121;28;20107;-87
2022/01/26 14:22:06;;;;;;;42.13;20.48;;;;;;;7.36;100.00;95219.06;5079516;28;20024;-88
2022/01/26 14:27:12;;;;;;;38.75;19.70;;;;;;;7.01;100.00;95211.97;5078617;28;20044;-87
2022/01/26 14:30:05;;;;;;;50.63;20.15;;;;;;;7.08;100.00;95216.06;5082660;28;20024;-87
2022/01/26 14:50:57;;;;;;;45.55;20.65;;;;;;;7.09;100.00;95216.88;5099314;28;20349;-88
2022/01/26 14:52:35;;;;;;;41.15;18.98;;;;;;;6.91;100.00;95221.16;5098956;28;20082;-88
2022/01/26 15:30:45;;;;;;;55.47;22.83;;;;;;;3.90;100.00;95216.44;5097711;28;20039;-88
2022/01/26 15:58:25;;;;;;;72.32;30.17;;;;;;;3.38;100.00;95209.34;5097400;28;20193;-87
2022/01/26 16:06:45;;;;;;;73.65;32.13;;;;;;;3.25;100.00;95204.19;5076891;28;20033;-87
2022/01/26 16:18:00;;;;;;;69.40;29.52;;;;;;;2.61;100.00;95217.47;5076438;28;20028;-87
2022/01/26 17:26:40;;;;;;;91.13;36.25;;;;;;;1.11;100.00;95270.28;5057133;28;20456;-87
2022/01/26 17:47:26;;;;;;;101.82;39.65;;;;;;;0.37;100.00;95260.03;5079662;28;20066;-87
2022/01/26 18:16:51;;;;;;;126.25;42.83;;;;;;;0.75;100.00;95228.09;5079331;28;20039;-87
2022/01/26 18:25:53;;;;;;;99.13;39.65;;;;;;;0.55;100.00;95225.31;5078593;28;20039;-87
2022/01/26 18:38:44;;;;;;;87.07;34.70;;;;;;;0.61;100.00;95252.97;5078847;28;20097;-86
2022/01/26 18:49:45;;;;;;;75.07;30.88;;;;;;;0.81;100.00;95240.25;5061721;28;20058;-87
2022/01/26 18:52:10;;;;;;;92.05;34.38;;;;;;;0.84;100.00;95229.56;5098043;28;20056;-87
2022/01/26 18:54:40;;;;;;;83.70;33.75;;;;;;;0.88;100.00;95236.94;5099667;28;20024;-87
2022/01/26 18:57:07;;;;;;;84.90;35.03;;;;;;;0.91;100.00;95221.91;5098343;28;20028;-87
2022/01/26 18:59:33;;;;;;;93.20;33.80;;;;;;;0.87;100.00;95228.41;5098035;28;20118;-86
2022/01/26 19:01:59;;;;;;;78.63;32.60;;;;;;;0.90;100.00;95233.19;5097859;28;20115;-87
2022/01/26 19:04:34;;;;;;;87.10;35.45;;;;;;;0.66;100.00;95239.53;5098283;28;20028;-87
2022/01/26 19:07:01;;;;;;;84.32;36.22;;;;;;;0.62;100.00;95249.41;5082544;28;20085;-87
2022/01/26 19:09:29;;;;;;;94.38;36.92;;;;;;;0.56;100.00;95245.75;5081363;28;20055;-87
2022/01/26 19:11:56;;;;;;;80.43;32.30;;;;;;;0.67;100.00;95248.84;5097689;28;20028;-87
2022/01/26 19:14:25;;;;;;;80.93;30.88;;;;;;;0.45;100.00;95255.75;5081073;28;20028;-87
2022/01/26 19:16:58;;;;;;;86.15;35.20;;;;;;;0.40;100.00;95272.56;5098106;28;20028;-87
2022/01/26 19:26:59;;;;;;;44.42;18.90;;;;;;;0.74;100.00;95262.59;5098437;28;20024;-87
2022/01/26 19:52:37;;;;;;;93.50;38.50;;;;;;;0.30;100.00;95287.53;5077245;28;20035;-89
2022/01/26 19:55:03;;;;;;;93.72;36.80;;;;;;;0.35;100.00;95292.94;5077057;28;20028;-88
2022/01/26 19:57:29;;;;;;;90.68;36.33;;;;;;;0.29;100.00;95293.66;5076452;28;20094;-88
2022/01/26 19:59:54;;;;;;;110.55;43.67;;;;;;;0.39;100.00;95288.22;5076231;28;20046;-88
2022/01/26 20:02:20;;;;;;;91.07;37.25;;;;;;;0.28;100.00;95279.16;5077051;28;20033;-88
2022/01/26 20:04:46;;;;;;;89.32;35.75;;;;;;;0.24;100.00;95270.19;5075847;28;20024;-88
2022/01/26 20:07:23;;;;;;;80.78;35.17;;;;;;;0.20;100.00;95268.94;5076713;28;20032;-88
2022/01/26 20:09:54;;;;;;;83.55;34.50;;;;;;;0.02;100.00;95275.28;5076537;28;20025;-88
2022/01/26 20:12:28;;;;;;;96.32;37.88;;;;;;;0.02;100.00;95279.63;5076907;28;20433;-88